Pagrindinis puslapis
METAR-TAF:

METAR-TAF

Oro uostai :

Kiutahija, Turkija

platuma: 39-06-41N, ilguma: 30-07-48E, Aukštis: 1013 m

METAR: trūkstamas

Laikas: 23:20 (20:20 UTC)

Prognozė

Ataskaita buvo paskelbta 3 valandos ir 40 minutes, ne 16:40 UTC
Prognozė galioja nuo 06 metu 18 UTC su 07 metu 03 UTC
Vėjas 2 kt nuo kintamojo kryptimis
Matomumas 10 km arba daugiau
Išsisklaidę debesys ne aukštis 4000 ft
Išsisklaidę debesys ne aukštis 10000 ft
Tapsmas
nuo 06 metu 21 UTC su 06 metu 24 UTC
Matomumas 10 km arba daugiau
nėra debesų žemiau 1500 m ir nėra kamuolinių lietaus debesų

TAF: LTBZ 061640Z 0618/0703 VRB02KT 9999 SCT040 SCT100 BECMG 0621/0624 CAVOK

Orai ataskaitas ir orų prognozės (METAR, TAF).

turimą stotys yra geltonos ir raudonos taškus žemėlapyje.

Perkelti pele per norėdami pamatyti stoties vardą.

Tada spustelėkite, norėdami matyti oro stebėjimo ir prognozės.

Norėdami pakeisti žemėlapį: spustelėkite ant žalios mygtukų su juodo kryžiaus žemyn,; žalią mygtuką su brūkšneliu, jei norite nutolinti; arba žalių rodyklių gretimoms žemėlapius.


METAR-TAF: